Time;durP1;ratioP1;P1;durP2;ratioP2;P2;SDS_P1;SDS_P2;PMS_P1;PMS_P2;Temp;Humidity;BMP_temperature;BMP_pressure;BME280_temperature;BME280_humidity;BME280_pressure;Samples;Min_cycle;Max_cycle;Signal;HPM_P1;HPM_P2
2024/01/31 00:03:53;;;;;;;13.20;6.22;;;;;;;-1.61;98.65;101708.72;10354382;28;20502;-69
2024/01/31 00:08:57;;;;;;;12.32;6.30;;;;;;;-1.64;99.08;101706.38;10370219;28;20410;-70
2024/01/31 00:14:00;;;;;;;11.93;5.70;;;;;;;-1.08;97.68;101701.69;10370568;28;20057;-72
2024/01/31 00:19:02;;;;;;;13.55;5.63;;;;;;;-1.45;97.54;101682.72;10370445;28;20038;-72
2024/01/31 00:24:05;;;;;;;10.07;4.90;;;;;;;-1.10;97.01;101676.78;10370446;28;20041;-72
2024/01/31 00:29:08;;;;;;;9.07;4.90;;;;;;;-1.00;97.25;101668.47;10373828;28;20057;-73
2024/01/31 00:34:11;;;;;;;11.93;6.15;;;;;;;-1.52;97.00;101659.22;10372382;28;20041;-73
2024/01/31 00:39:13;;;;;;;10.30;5.55;;;;;;;-1.29;97.46;101642.25;10353363;28;20052;-73
2024/01/31 00:44:15;;;;;;;12.13;5.88;;;;;;;-1.49;98.40;101625.72;10368964;28;20671;-74
2024/01/31 00:49:18;;;;;;;8.23;4.75;;;;;;;-1.25;98.41;101620.16;10369171;28;20041;-73
2024/01/31 00:54:20;;;;;;;11.23;6.03;;;;;;;-1.33;98.37;101606.78;10352814;28;20045;-73
2024/01/31 00:59:23;;;;;;;11.32;4.95;;;;;;;-1.41;98.61;101605.97;10367798;28;20038;-73
2024/01/31 01:04:26;;;;;;;11.77;4.90;;;;;;;-1.35;98.99;101605.28;10368708;28;20042;-73
2024/01/31 01:09:28;;;;;;;13.13;5.85;;;;;;;-1.01;98.55;101589.53;10368460;28;20413;-73
2024/01/31 01:14:30;;;;;;;9.75;5.22;;;;;;;-0.94;98.20;101587.75;10352134;28;20042;-73
2024/01/31 01:19:33;;;;;;;13.68;6.63;;;;;;;-0.85;97.05;101572.38;10351904;28;20045;-74
2024/01/31 01:24:35;;;;;;;10.07;4.65;;;;;;;-0.93;97.75;101554.41;10352153;28;20488;-72
2024/01/31 01:29:37;;;;;;;10.52;4.57;;;;;;;-0.83;98.04;101547.94;10368244;28;20046;-72
2024/01/31 01:34:41;;;;;;;11.82;4.82;;;;;;;-0.42;96.80;101535.66;10367760;28;20464;-72
2024/01/31 01:39:45;;;;;;;10.63;5.32;;;;;;;-1.03;96.81;101526.91;10368179;28;20536;-72
2024/01/31 01:44:47;;;;;;;9.05;4.63;;;;;;;-1.07;97.50;101513.97;10368013;28;20034;-72
2024/01/31 01:49:50;;;;;;;9.43;5.15;;;;;;;-1.02;98.05;101509.72;10351586;28;20387;-71
2024/01/31 01:54:52;;;;;;;8.13;4.18;;;;;;;-0.41;98.13;101491.50;10367056;28;20050;-73
2024/01/31 01:59:54;;;;;;;10.65;4.80;;;;;;;-0.96;97.01;101486.59;10352211;28;20045;-74
2024/01/31 02:04:58;;;;;;;8.82;4.40;;;;;;;-0.78;97.58;101467.38;10351263;28;20457;-73
2024/01/31 02:10:00;;;;;;;7.72;4.05;;;;;;;-0.67;97.18;101448.88;10351112;28;20042;-74
2024/01/31 02:15:03;;;;;;;9.82;5.38;;;;;;;-0.51;97.17;101428.97;10374898;28;20049;-73
2024/01/31 02:20:07;;;;;;;10.48;4.63;;;;;;;-1.05;96.43;101423.03;10390738;28;20048;-73
2024/01/31 02:25:15;;;;;;;8.43;4.75;;;;;;;-0.67;98.03;101418.41;10373997;28;20046;-73
2024/01/31 02:30:18;;;;;;;6.43;3.78;;;;;;;-0.81;97.62;101408.47;10358330;28;20042;-73
2024/01/31 02:35:20;;;;;;;8.32;4.25;;;;;;;-0.75;97.72;101402.31;10357987;28;20048;-73
2024/01/31 02:40:22;;;;;;;10.25;4.32;;;;;;;-0.55;97.21;101376.44;10357697;28;20457;-73
2024/01/31 02:45:24;;;;;;;8.32;4.43;;;;;;;-0.72;97.51;101369.59;10373428;28;20042;-72
2024/01/31 02:50:30;;;;;;;8.15;4.07;;;;;;;-0.58;97.82;101359.81;10357487;28;20048;-72
2024/01/31 02:55:32;;;;;;;8.10;4.65;;;;;;;-0.62;97.71;101349.41;10357389;28;20050;-72
2024/01/31 03:00:35;;;;;;;9.88;4.75;;;;;;;-0.63;97.38;101344.22;10356340;28;20425;-72
2024/01/31 03:05:37;;;;;;;6.50;4.13;;;;;;;-0.69;97.84;101340.44;10357122;28;20045;-72
2024/01/31 03:10:44;;;;;;;9.15;5.35;;;;;;;-0.70;98.41;101341.41;10356772;28;20042;-72
2024/01/31 03:15:46;;;;;;;11.27;5.00;;;;;;;-0.46;98.08;101324.06;10372419;28;20041;-72
2024/01/31 03:20:54;;;;;;;9.90;4.97;;;;;;;-0.54;97.76;101318.78;10356167;28;20046;-71
2024/01/31 03:25:57;;;;;;;12.07;5.22;;;;;;;-0.34;98.38;101302.84;10372151;28;20413;-70
2024/01/31 03:30:59;;;;;;;7.72;3.33;;;;;;;-0.61;98.18;101307.94;10355993;28;20064;-70
2024/01/31 03:36:02;;;;;;;7.50;4.32;;;;;;;-0.48;98.64;101296.47;10355281;28;20044;-70
2024/01/31 03:41:06;;;;;;;9.93;3.33;;;;;;;-0.46;98.34;101289.03;10387944;28;20044;-71
2024/01/31 03:46:08;;;;;;;9.18;4.68;;;;;;;-0.50;99.72;101285.06;10388402;28;20042;-72
2024/01/31 03:51:23;;;;;;;9.20;4.80;;;;;;;-0.26;99.26;101280.28;10358000;28;20045;-71
2024/01/31 03:56:26;;;;;;;9.63;4.10;;;;;;;-0.16;98.86;101272.69;10341132;28;20046;-71
2024/01/31 04:01:30;;;;;;;9.25;4.20;;;;;;;-0.19;98.44;101267.69;10371753;28;20042;-74
2024/01/31 04:06:32;;;;;;;6.45;3.83;;;;;;;0.04;97.95;101262.91;10354334;28;20049;-72
2024/01/31 04:11:34;;;;;;;5.63;3.40;;;;;;;0.26;96.55;101256.38;10370048;28;20851;-71
2024/01/31 04:16:36;;;;;;;9.82;4.93;;;;;;;0.12;96.57;101251.09;10386407;28;20033;-72
2024/01/31 04:21:39;;;;;;;11.50;4.75;;;;;;;0.02;96.73;101240.69;10353899;28;20052;-72
2024/01/31 04:26:43;;;;;;;13.88;4.88;;;;;;;-0.04;97.00;101236.03;10353426;28;20041;-71
2024/01/31 04:31:50;;;;;;;5.68;3.72;;;;;;;0.14;97.73;101224.75;10370522;28;20053;-71
2024/01/31 04:36:52;;;;;;;9.63;4.53;;;;;;;0.31;97.33;101215.28;10353575;28;20053;-72
2024/01/31 04:41:55;;;;;;;7.75;4.35;;;;;;;0.34;96.93;101212.19;10369793;28;20049;-71
2024/01/31 04:46:57;;;;;;;9.23;4.53;;;;;;;0.16;96.60;101212.72;10385157;28;20053;-71
2024/01/31 04:51:59;;;;;;;10.30;5.15;;;;;;;0.23;97.44;101193.88;10386133;28;20049;-71
2024/01/31 04:57:01;;;;;;;9.70;4.43;;;;;;;-0.01;97.95;101190.63;10352242;28;20532;-72
2024/01/31 05:02:04;;;;;;;9.73;4.82;;;;;;;0.07;98.53;101189.63;10368753;28;20038;-71
2024/01/31 05:07:06;;;;;;;7.97;3.92;;;;;;;0.15;99.16;101184.06;10368538;28;20395;-73
2024/01/31 05:12:08;;;;;;;10.10;4.78;;;;;;;0.21;99.18;101161.69;10368148;28;20049;-73
2024/01/31 05:17:15;;;;;;;9.85;4.38;;;;;;;0.41;99.47;101164.47;10368481;28;20037;-72
2024/01/31 05:22:18;;;;;;;9.75;4.40;;;;;;;0.41;98.91;101163.66;10368287;28;20517;-72
2024/01/31 05:27:21;;;;;;;8.88;4.32;;;;;;;0.26;98.98;101164.63;10368163;28;20045;-73
2024/01/31 05:32:23;;;;;;;8.73;3.92;;;;;;;0.58;99.67;101159.56;10351966;28;20068;-72
2024/01/31 05:37:25;;;;;;;10.15;4.18;;;;;;;0.62;99.21;101151.88;10352117;28;20386;-72
2024/01/31 05:42:27;;;;;;;6.95;4.18;;;;;;;0.72;98.83;101146.94;10383954;28;20045;-73
2024/01/31 05:47:29;;;;;;;11.27;4.13;;;;;;;0.60;98.55;101138.59;10355018;28;20441;-72
2024/01/31 05:52:32;;;;;;;7.57;3.63;;;;;;;0.33;97.47;101129.53;10375255;28;20604;-72
2024/01/31 05:57:34;;;;;;;7.65;4.40;;;;;;;0.29;98.77;101121.03;10391645;28;20065;-70
2024/01/31 06:02:37;;;;;;;5.95;3.33;;;;;;;0.26;99.07;101120.59;10409207;28;20042;-72
2024/01/31 06:07:39;;;;;;;8.15;3.88;;;;;;;0.24;99.38;101115.41;10391020;28;20050;-72
2024/01/31 06:12:41;;;;;;;5.85;3.42;;;;;;;0.39;99.73;101107.16;10375051;28;20045;-72
2024/01/31 06:17:43;;;;;;;8.98;4.05;;;;;;;0.67;99.86;101098.91;10391039;28;20421;-72
2024/01/31 06:22:45;;;;;;;6.60;3.08;;;;;;;0.39;99.60;101107.16;10359048;28;20323;-73
2024/01/31 06:27:48;;;;;;;9.40;3.28;;;;;;;0.59;99.72;101093.72;10358331;28;20053;-73
2024/01/31 06:32:50;;;;;;;7.63;3.53;;;;;;;0.54;99.09;101096.19;10358132;28;20045;-73
2024/01/31 06:37:52;;;;;;;4.45;2.78;;;;;;;0.42;98.65;101089.72;10373952;28;20038;-73
2024/01/31 06:42:54;;;;;;;7.30;3.10;;;;;;;0.37;98.87;101087.63;10373416;28;20041;-73
2024/01/31 06:47:56;;;;;;;9.88;3.30;;;;;;;0.37;99.54;101086.81;10373239;28;20042;-73
2024/01/31 06:52:58;;;;;;;5.82;2.97;;;;;;;0.61;99.24;101075.44;10407027;28;20057;-73
2024/01/31 06:58:00;;;;;;;6.05;3.05;;;;;;;0.54;100.00;101077.31;10405786;28;20038;-73
2024/01/31 07:03:03;;;;;;;8.82;3.88;;;;;;;0.88;99.96;101082.53;10372569;28;20037;-73
2024/01/31 07:08:05;;;;;;;7.03;3.47;;;;;;;0.79;99.06;101072.97;10373197;28;20046;-73
2024/01/31 07:13:08;;;;;;;7.03;3.63;;;;;;;0.69;99.40;101048.22;10342304;28;20038;-73
2024/01/31 07:18:10;;;;;;;7.85;3.67;;;;;;;0.53;98.96;101060.28;10358945;28;20526;-73
2024/01/31 07:23:12;;;;;;;7.38;3.38;;;;;;;0.47;99.16;101057.53;10357120;28;20037;-73
2024/01/31 07:28:14;;;;;;;8.77;3.40;;;;;;;0.49;99.84;101063.56;10371800;28;20034;-73
2024/01/31 07:33:16;;;;;;;6.57;4.07;;;;;;;0.42;100.00;101054.63;10388315;28;20421;-73
2024/01/31 07:38:19;;;;;;;9.43;4.30;;;;;;;0.27;100.00;101049.41;10387855;28;20620;-73
2024/01/31 07:43:23;;;;;;;6.93;3.58;;;;;;;0.40;100.00;101056.69;10371173;28;20169;-73
2024/01/31 07:48:25;;;;;;;8.88;3.97;;;;;;;0.29;99.84;101048.16;10355139;28;20045;-73
2024/01/31 07:53:27;;;;;;;6.50;3.85;;;;;;;0.43;100.00;101059.00;10387721;28;20049;-73
2024/01/31 07:58:30;;;;;;;7.97;4.20;;;;;;;0.17;99.92;101052.47;10370999;28;20048;-73
2024/01/31 08:03:38;;;;;;;7.07;3.80;;;;;;;0.34;100.00;101039.44;10370250;28;20524;-73
2024/01/31 08:08:45;;;;;;;6.70;3.35;;;;;;;0.64;100.00;101041.78;10353778;28;20045;-73
2024/01/31 08:13:47;;;;;;;10.80;4.50;;;;;;;0.49;99.85;101045.50;10370101;28;20048;-73
2024/01/31 08:18:49;;;;;;;9.68;4.30;;;;;;;0.70;100.00;101035.56;10370184;28;20041;-73
2024/01/31 08:23:51;;;;;;;7.25;4.07;;;;;;;0.67;99.97;101030.56;10353789;28;20034;-73
2024/01/31 08:28:55;;;;;;;12.35;4.40;;;;;;;0.76;100.00;101032.88;10385763;28;20038;-73
2024/01/31 08:33:57;;;;;;;9.43;4.53;;;;;;;0.43;99.66;101040.09;10353163;28;20076;-73
2024/01/31 08:39:01;;;;;;;12.05;4.53;;;;;;;0.74;100.00;101028.72;10369007;28;20433;-72
2024/01/31 08:44:03;;;;;;;10.77;4.35;;;;;;;0.56;99.76;101027.44;10353881;28;20053;-72
2024/01/31 08:49:05;;;;;;;10.82;5.38;;;;;;;0.67;99.91;101035.97;10368579;28;20045;-72
2024/01/31 08:54:07;;;;;;;12.90;4.97;;;;;;;0.46;99.63;101031.56;10352115;28;20602;-72
2024/01/31 08:59:09;;;;;;;12.48;5.18;;;;;;;0.82;99.97;101018.50;10368849;28;20037;-72
2024/01/31 09:04:13;;;;;;;14.30;4.90;;;;;;;0.56;99.38;101002.31;10352286;28;20417;-72
2024/01/31 09:09:15;;;;;;;12.23;5.25;;;;;;;0.67;99.47;101011.66;10367677;28;20050;-72
2024/01/31 09:14:17;;;;;;;9.82;4.53;;;;;;;0.65;99.45;101008.34;10368624;28;20042;-71
2024/01/31 09:19:20;;;;;;;14.52;5.35;;;;;;;0.96;99.13;101002.31;10351682;28;20425;-72
2024/01/31 09:24:22;;;;;;;11.25;4.68;;;;;;;0.68;98.67;100994.41;10367161;28;20041;-72
2024/01/31 09:29:27;;;;;;;10.25;5.30;;;;;;;0.55;98.74;100989.84;10351847;28;20050;-72
2024/01/31 09:34:29;;;;;;;12.57;5.22;;;;;;;0.70;98.96;100990.50;10383467;28;20049;-73
2024/01/31 09:39:31;;;;;;;10.07;4.85;;;;;;;0.52;99.06;100982.16;10351531;28;20068;-72
2024/01/31 09:44:35;;;;;;;10.98;5.93;;;;;;;0.90;99.40;100972.41;10367406;28;20042;-72
2024/01/31 09:49:37;;;;;;;13.90;5.45;;;;;;;1.00;98.87;100963.84;10351311;28;20046;-73
2024/01/31 09:54:39;;;;;;;8.48;4.90;;;;;;;1.03;98.83;100958.00;10383477;28;20054;-72
2024/01/31 09:59:42;;;;;;;9.90;4.72;;;;;;;1.03;98.38;100954.47;10351356;28;20634;-72
2024/01/31 10:04:48;;;;;;;12.50;5.25;;;;;;;0.81;98.49;100945.78;10351116;28;20417;-72
2024/01/31 10:09:52;;;;;;;18.00;6.03;;;;;;;0.98;98.53;100930.81;10366626;28;20057;-71
2024/01/31 10:14:55;;;;;;;10.48;5.30;;;;;;;0.82;98.60;100926.66;10367301;28;20046;-72
2024/01/31 10:19:58;;;;;;;14.70;5.88;;;;;;;0.85;99.35;100917.31;10383891;28;20042;-71
2024/01/31 10:25:00;;;;;;;11.73;5.32;;;;;;;0.62;98.82;100919.63;10350680;28;20042;-72
2024/01/31 10:30:08;;;;;;;9.85;4.55;;;;;;;0.96;99.47;100902.34;10335753;28;20072;-72
2024/01/31 10:35:10;;;;;;;12.25;6.38;;;;;;;0.81;99.26;100884.50;10391956;28;20045;-73
2024/01/31 10:40:13;;;;;;;10.57;4.78;;;;;;;0.57;99.26;100867.09;10408727;28;20053;-72
2024/01/31 10:45:16;;;;;;;13.35;5.30;;;;;;;0.61;99.64;100872.91;10357487;28;20633;-72
2024/01/31 10:50:18;;;;;;;12.30;5.63;;;;;;;0.77;100.00;100858.13;10373374;28;20046;-73
2024/01/31 10:55:21;;;;;;;17.17;6.40;;;;;;;0.57;100.00;100863.56;10372879;28;20113;-73
2024/01/31 11:00:30;;;;;;;13.70;5.53;;;;;;;0.58;100.00;100862.53;10373088;28;20068;-73
2024/01/31 11:05:33;;;;;;;13.13;5.57;;;;;;;0.63;100.00;100851.91;10388921;28;20041;-73
2024/01/31 11:10:35;;;;;;;8.85;4.88;;;;;;;0.66;100.00;100846.09;10355984;28;20045;-73
2024/01/31 11:15:37;;;;;;;11.93;6.13;;;;;;;0.86;100.00;100833.34;10356502;28;20404;-73
2024/01/31 11:20:50;;;;;;;12.88;5.55;;;;;;;0.80;99.88;100839.63;10388331;28;20045;-73
2024/01/31 11:25:52;;;;;;;11.32;5.82;;;;;;;0.69;99.85;100829.47;10371896;28;20510;-73
2024/01/31 11:30:56;;;;;;;12.80;6.40;;;;;;;0.83;99.66;100827.56;10371719;28;20201;-73
2024/01/31 11:35:58;;;;;;;9.45;5.85;;;;;;;0.51;99.43;100829.28;10371985;28;20537;-73
2024/01/31 11:41:00;;;;;;;12.20;4.88;;;;;;;0.62;100.00;100812.44;10372306;28;20045;-73
2024/01/31 11:46:03;;;;;;;12.23;6.10;;;;;;;0.84;100.00;100827.34;10370690;28;20056;-73
2024/01/31 11:51:05;;;;;;;8.75;4.65;;;;;;;0.54;100.00;100802.72;10387095;28;20052;-73
2024/01/31 11:56:07;;;;;;;8.60;4.65;;;;;;;0.76;100.00;100802.44;10354668;28;20050;-73
2024/01/31 12:01:10;;;;;;;9.05;5.25;;;;;;;0.90;100.00;100794.09;10370779;28;20044;-72
2024/01/31 12:06:18;;;;;;;11.70;4.88;;;;;;;1.04;100.00;100792.16;10369955;28;20409;-72
2024/01/31 12:11:20;;;;;;;11.63;4.80;;;;;;;0.94;99.92;100783.69;10370999;28;20052;-72
2024/01/31 12:16:22;;;;;;;9.68;4.85;;;;;;;0.77;99.32;100772.53;10370248;28;20046;-72
2024/01/31 12:21:26;;;;;;;14.70;4.90;;;;;;;0.77;99.31;100767.13;10354762;28;20053;-71
2024/01/31 12:26:28;;;;;;;10.18;4.20;;;;;;;0.86;100.00;100760.41;10353148;28;20037;-72
2024/01/31 12:31:30;;;;;;;6.63;4.10;;;;;;;1.02;99.53;100752.88;10369702;28;20064;-73
2024/01/31 12:36:33;;;;;;;8.23;4.57;;;;;;;0.84;99.11;100754.41;10369434;28;20560;-73
2024/01/31 12:41:35;;;;;;;7.50;4.40;;;;;;;0.87;99.54;100740.50;10385254;28;20041;-73
2024/01/31 12:46:42;;;;;;;6.78;4.63;;;;;;;0.80;99.58;100731.56;10385196;28;20057;-73
2024/01/31 12:51:44;;;;;;;9.10;4.40;;;;;;;0.89;100.00;100722.19;10385008;28;20449;-73
2024/01/31 12:56:46;;;;;;;7.88;4.20;;;;;;;1.09;100.00;100716.69;10367770;28;20053;-73
2024/01/31 13:01:50;;;;;;;10.23;4.38;;;;;;;1.17;99.59;100721.81;10363013;28;20041;-72
2024/01/31 13:06:53;;;;;;;7.45;4.32;;;;;;;1.28;99.45;100701.38;10384110;28;20556;-72
2024/01/31 13:11:55;;;;;;;6.47;4.20;;;;;;;1.12;98.33;100705.44;10368432;28;20033;-71
2024/01/31 13:16:57;;;;;;;9.73;3.88;;;;;;;1.00;98.72;100695.50;10384093;28;20520;-71
2024/01/31 13:21:59;;;;;;;9.57;3.78;;;;;;;0.86;98.87;100686.66;10384567;28;20040;-71
2024/01/31 13:27:02;;;;;;;6.78;3.80;;;;;;;0.94;100.00;100689.13;10384251;28;20428;-71
2024/01/31 13:32:05;;;;;;;6.80;3.13;;;;;;;0.95;99.88;100688.06;10351416;28;20038;-72
2024/01/31 13:37:07;;;;;;;6.20;3.45;;;;;;;0.88;100.00;100680.00;10351522;28;20045;-72
2024/01/31 13:42:10;;;;;;;4.88;3.72;;;;;;;1.12;100.00;100654.09;10352007;28;20034;-72
2024/01/31 13:47:12;;;;;;;7.28;4.57;;;;;;;1.13;100.00;100644.09;10351575;28;20556;-72
2024/01/31 13:52:14;;;;;;;4.82;3.47;;;;;;;0.82;100.00;100637.66;10368091;28;20052;-72
2024/01/31 13:57:16;;;;;;;5.28;2.65;;;;;;;1.14;100.00;100646.56;10371328;28;20046;-72
2024/01/31 14:02:18;;;;;;;4.72;3.28;;;;;;;1.21;100.00;100651.91;10369278;28;20405;-72
2024/01/31 14:07:21;;;;;;;5.15;2.58;;;;;;;1.25;100.00;100657.75;10384028;28;20042;-72
2024/01/31 14:12:23;;;;;;;5.82;3.47;;;;;;;1.33;100.00;100658.28;10358874;28;20421;-72
2024/01/31 14:17:25;;;;;;;8.57;4.50;;;;;;;1.38;99.91;100639.50;10358803;28;20060;-72
2024/01/31 14:22:27;;;;;;;7.22;3.42;;;;;;;1.26;99.70;100624.25;10358783;28;20048;-72
2024/01/31 14:27:30;;;;;;;6.75;3.53;;;;;;;0.94;100.00;100620.75;10390572;28;20064;-72
2024/01/31 14:32:33;;;;;;;9.23;3.97;;;;;;;1.10;100.00;100615.63;10390321;28;20509;-72
2024/01/31 14:37:35;;;;;;;7.78;3.45;;;;;;;1.20;100.00;100601.63;10375162;28;20033;-71
2024/01/31 14:42:37;;;;;;;6.25;4.05;;;;;;;1.14;100.00;100610.63;10389678;28;20090;-72
2024/01/31 14:47:39;;;;;;;6.43;3.78;;;;;;;0.92;100.00;100609.34;10373656;28;20034;-71
2024/01/31 14:52:41;;;;;;;6.05;3.67;;;;;;;1.09;100.00;100607.75;10373610;28;20046;-72
2024/01/31 14:57:43;;;;;;;7.40;3.70;;;;;;;1.37;100.00;100581.09;10373692;28;20037;-71
2024/01/31 15:02:45;;;;;;;7.50;4.07;;;;;;;1.33;100.00;100588.00;10372903;28;20129;-71
2024/01/31 15:07:48;;;;;;;4.88;3.53;;;;;;;1.45;100.00;100591.63;10356766;28;20058;-72
2024/01/31 15:12:52;;;;;;;7.57;4.00;;;;;;;1.38;99.84;100598.97;10372624;28;20053;-72
2024/01/31 15:17:54;;;;;;;10.45;3.67;;;;;;;1.29;99.38;100575.16;10372151;28;20041;-72
2024/01/31 15:22:56;;;;;;;7.88;3.38;;;;;;;1.48;100.00;100580.38;10355809;28;20046;-72
2024/01/31 15:27:58;;;;;;;7.22;3.90;;;;;;;1.26;99.34;100592.66;10356299;28;20573;-72
2024/01/31 15:33:00;;;;;;;7.15;4.03;;;;;;;0.93;100.00;100602.88;10340004;28;20042;-72
2024/01/31 15:38:03;;;;;;;5.97;3.67;;;;;;;0.74;100.00;100608.22;10340099;28;20037;-72
2024/01/31 15:43:05;;;;;;;9.20;3.92;;;;;;;0.69;100.00;100605.31;10355429;28;20483;-72
2024/01/31 15:48:08;;;;;;;11.00;4.32;;;;;;;0.93;100.00;100601.00;10339133;28;20044;-72
2024/01/31 15:53:10;;;;;;;7.32;4.13;;;;;;;0.70;100.00;100577.28;10371191;28;20049;-72
2024/01/31 15:58:12;;;;;;;7.63;4.32;;;;;;;0.66;100.00;100580.63;10355202;28;20045;-72
2024/01/31 16:03:14;;;;;;;12.75;4.50;;;;;;;0.77;100.00;100572.66;10386655;28;20041;-72
2024/01/31 16:08:17;;;;;;;10.07;4.55;;;;;;;0.82;100.00;100589.03;10404254;28;20497;-72
2024/01/31 16:13:19;;;;;;;9.45;4.90;;;;;;;0.68;100.00;100578.53;10370559;28;20053;-72
2024/01/31 16:18:22;;;;;;;10.80;5.20;;;;;;;0.93;100.00;100570.47;10353976;28;20041;-72
2024/01/31 16:23:24;;;;;;;8.27;4.93;;;;;;;0.93;100.00;100571.28;10370959;28;20052;-72
2024/01/31 16:28:26;;;;;;;11.50;4.95;;;;;;;0.77;100.00;100559.16;10353844;28;20048;-72
2024/01/31 16:33:29;;;;;;;12.80;5.20;;;;;;;0.93;100.00;100543.47;10353836;28;20060;-70
2024/01/31 16:38:31;;;;;;;9.43;4.40;;;;;;;0.81;100.00;100522.53;10369311;28;20516;-71
2024/01/31 16:43:33;;;;;;;11.93;6.30;;;;;;;1.07;100.00;100518.81;10385634;28;20046;-69
2024/01/31 16:48:36;;;;;;;11.95;5.32;;;;;;;0.77;100.00;100505.13;10385654;28;20524;-70
2024/01/31 16:53:38;;;;;;;14.30;5.65;;;;;;;0.79;100.00;100494.09;10368493;28;20057;-72
2024/01/31 16:58:40;;;;;;;14.13;5.18;;;;;;;0.74;100.00;100475.03;10385235;28;20037;-69
2024/01/31 17:03:42;;;;;;;10.48;4.95;;;;;;;0.86;100.00;100463.28;10353421;28;20054;-71
2024/01/31 17:08:44;;;;;;;9.75;5.25;;;;;;;0.92;100.00;100439.97;10385053;28;20045;-71
2024/01/31 17:13:48;;;;;;;12.77;5.03;;;;;;;0.87;100.00;100445.22;10386593;28;20056;-70
2024/01/31 17:18:50;;;;;;;8.40;4.32;;;;;;;0.82;100.00;100432.38;10355839;28;20521;-71
2024/01/31 17:23:52;;;;;;;9.43;4.28;;;;;;;0.88;100.00;100418.00;10385672;28;20041;-70
2024/01/31 17:28:55;;;;;;;6.05;3.72;;;;;;;0.82;100.00;100394.56;10368066;28;20049;-72
2024/01/31 17:33:58;;;;;;;7.93;3.80;;;;;;;1.04;100.00;100380.59;10384449;28;20046;-72
2024/01/31 17:39:00;;;;;;;7.15;4.47;;;;;;;1.15;100.00;100377.97;10368206;28;20498;-71
2024/01/31 17:44:02;;;;;;;7.97;4.15;;;;;;;1.13;100.00;100382.78;10388727;28;20046;-71
2024/01/31 17:49:05;;;;;;;10.13;4.18;;;;;;;1.07;100.00;100372.06;10409776;28;20417;-71
2024/01/31 17:54:07;;;;;;;9.68;5.07;;;;;;;1.12;100.00;100356.00;10391796;28;20073;-73
2024/01/31 17:59:10;;;;;;;10.98;4.72;;;;;;;1.31;100.00;100368.44;10376374;28;20034;-73
2024/01/31 18:04:12;;;;;;;8.85;4.75;;;;;;;1.01;100.00;100362.16;10375236;28;20179;-73
2024/01/31 18:09:16;;;;;;;8.52;5.10;;;;;;;1.04;100.00;100348.19;10391638;28;20042;-73
2024/01/31 18:14:19;;;;;;;10.50;5.15;;;;;;;1.02;100.00;100347.59;10375037;28;20049;-71
2024/01/31 18:19:21;;;;;;;9.90;5.00;;;;;;;0.96;100.00;100346.63;10375221;28;20047;-71
2024/01/31 18:24:23;;;;;;;9.35;5.18;;;;;;;1.15;100.00;100347.44;10390885;28;20048;-71
2024/01/31 18:29:25;;;;;;;9.23;5.10;;;;;;;1.06;100.00;100336.13;10373767;28;20046;-71
2024/01/31 18:34:28;;;;;;;8.10;4.50;;;;;;;1.10;100.00;100342.72;10375067;28;20137;-71
2024/01/31 18:39:31;;;;;;;8.75;4.43;;;;;;;1.03;100.00;100333.84;10390576;28;20153;-71
2024/01/31 18:44:33;;;;;;;7.85;4.60;;;;;;;1.12;100.00;100332.50;10373776;28;20037;-73
2024/01/31 18:49:35;;;;;;;8.35;4.03;;;;;;;1.07;100.00;100318.03;10373539;28;20038;-73
2024/01/31 18:54:37;;;;;;;7.97;4.13;;;;;;;1.09;100.00;100313.22;10373376;28;20050;-73
2024/01/31 18:59:42;;;;;;;5.50;2.42;;;;;;;0.94;100.00;100304.69;10373323;28;20045;-73
2024/01/31 19:04:44;;;;;;;8.80;3.67;;;;;;;0.99;100.00;100292.13;10389394;28;20042;-72
2024/01/31 19:09:46;;;;;;;4.90;3.53;;;;;;;1.06;100.00;100282.09;10373368;28;20048;-73
2024/01/31 19:14:50;;;;;;;8.93;4.07;;;;;;;0.98;100.00;100274.28;10388607;28;20045;-72
2024/01/31 19:19:54;;;;;;;6.75;4.50;;;;;;;1.00;100.00;100255.13;10389339;28;20417;-73
2024/01/31 19:24:56;;;;;;;5.60;3.67;;;;;;;1.08;100.00;100238.63;10372635;28;20049;-72
2024/01/31 19:29:58;;;;;;;6.97;3.55;;;;;;;1.05;100.00;100230.97;10339706;28;20034;-72
2024/01/31 19:35:01;;;;;;;5.07;2.90;;;;;;;1.05;100.00;100217.47;10372611;28;20056;-72
2024/01/31 19:40:03;;;;;;;6.05;2.72;;;;;;;1.11;100.00;100197.63;10372028;28;20049;-71
2024/01/31 19:45:07;;;;;;;8.32;3.92;;;;;;;1.16;100.00;100181.53;10371659;28;20042;-71
2024/01/31 19:50:09;;;;;;;7.15;3.75;;;;;;;1.09;100.00;100173.53;10370947;28;20034;-70
2024/01/31 19:55:11;;;;;;;5.40;3.42;;;;;;;1.17;100.00;100153.47;10371472;28;20081;-70
2024/01/31 20:00:14;;;;;;;7.05;4.15;;;;;;;1.06;100.00;100151.56;10387259;28;20596;-71
2024/01/31 20:05:16;;;;;;;8.05;3.72;;;;;;;1.23;100.00;100149.84;10354034;28;20042;-71
2024/01/31 20:10:18;;;;;;;7.10;3.97;;;;;;;1.00;100.00;100138.97;10370616;28;20041;-71
2024/01/31 20:15:21;;;;;;;3.78;2.83;;;;;;;1.01;100.00;100144.13;10354460;28;20069;-70
2024/01/31 20:20:23;;;;;;;4.88;3.03;;;;;;;1.07;100.00;100129.72;10387215;28;20052;-71
2024/01/31 20:25:25;;;;;;;7.00;3.20;;;;;;;1.17;100.00;100134.53;10385975;28;20045;-71
2024/01/31 20:30:30;;;;;;;6.13;3.35;;;;;;;1.43;100.00;100112.50;10369960;28;20037;-71
2024/01/31 20:35:33;;;;;;;4.65;3.00;;;;;;;1.29;100.00;100094.84;10386836;28;20049;-71
2024/01/31 20:40:35;;;;;;;6.45;3.67;;;;;;;1.55;100.00;100090.84;10371694;28;20482;-71
2024/01/31 20:45:37;;;;;;;3.97;2.38;;;;;;;1.39;100.00;100078.91;10372472;28;20116;-71
2024/01/31 20:50:40;;;;;;;6.18;3.47;;;;;;;1.45;100.00;100074.41;10369330;28;20563;-73
2024/01/31 20:55:43;;;;;;;3.92;2.88;;;;;;;1.51;100.00;100055.34;10384679;28;20065;-71
2024/01/31 21:00:45;;;;;;;6.82;3.40;;;;;;;1.77;100.00;100047.81;10369013;28;20038;-71
2024/01/31 21:05:48;;;;;;;6.80;3.15;;;;;;;1.88;100.00;100033.44;10369285;28;20045;-71
2024/01/31 21:10:51;;;;;;;3.67;2.70;;;;;;;1.70;100.00;100022.78;10368387;28;20421;-73
2024/01/31 21:15:53;;;;;;;7.28;3.63;;;;;;;1.64;100.00;100008.31;10368717;28;20042;-71
2024/01/31 21:20:56;;;;;;;6.75;3.63;;;;;;;1.57;100.00;100006.81;10367342;28;20529;-71
2024/01/31 21:25:58;;;;;;;4.97;3.10;;;;;;;1.58;100.00;99989.53;10352216;28;20041;-70
2024/01/31 21:31:01;;;;;;;7.25;3.63;;;;;;;1.56;100.00;99970.81;10384497;28;20049;-70
2024/01/31 21:36:03;;;;;;;6.93;3.47;;;;;;;1.63;100.00;99957.19;10367881;28;20042;-70
2024/01/31 21:41:06;;;;;;;5.63;3.35;;;;;;;1.61;100.00;99940.38;10368527;28;20053;-70
2024/01/31 21:46:08;;;;;;;3.25;2.42;;;;;;;1.58;100.00;99933.56;10352117;28;20061;-70
2024/01/31 21:51:11;;;;;;;3.90;2.60;;;;;;;1.72;100.00;99932.22;10367822;28;20413;-70
2024/01/31 21:56:17;;;;;;;4.93;2.38;;;;;;;1.65;100.00;99919.91;10351687;28;20536;-70
2024/01/31 22:01:19;;;;;;;3.08;2.42;;;;;;;1.70;100.00;99898.38;10383842;28;20034;-70
2024/01/31 22:06:22;;;;;;;7.07;3.28;;;;;;;1.75;100.00;99890.38;10401019;28;20038;-70
2024/01/31 22:11:24;;;;;;;6.45;3.00;;;;;;;1.66;100.00;99872.88;10383711;28;20433;-70
2024/01/31 22:16:26;;;;;;;6.32;2.88;;;;;;;1.79;100.00;99861.78;10367099;28;20053;-72
2024/01/31 22:21:28;;;;;;;4.90;3.22;;;;;;;1.72;100.00;99850.25;10400313;28;20045;-70
2024/01/31 22:26:35;;;;;;;6.60;3.08;;;;;;;1.83;100.00;99841.28;10367376;28;20041;-71
2024/01/31 22:31:43;;;;;;;5.20;2.60;;;;;;;1.83;100.00;99830.47;10373165;28;20060;-71
2024/01/31 22:36:46;;;;;;;7.53;3.25;;;;;;;1.91;100.00;99827.38;10374207;28;20493;-71
2024/01/31 22:41:48;;;;;;;4.78;2.60;;;;;;;1.87;100.00;99818.06;10373891;28;20044;-71
2024/01/31 22:46:50;;;;;;;3.50;2.33;;;;;;;1.84;100.00;99815.88;10390221;28;20532;-71
2024/01/31 22:51:52;;;;;;;3.78;2.40;;;;;;;1.92;100.00;99809.25;10373721;28;20056;-70
2024/01/31 22:56:56;;;;;;;5.80;2.55;;;;;;;1.96;100.00;99800.41;10357232;28;20049;-71
2024/01/31 23:01:59;;;;;;;1.35;1.25;;;;;;;1.91;100.00;99788.66;10373747;28;20053;-71
2024/01/31 23:07:01;;;;;;;2.97;2.22;;;;;;;2.00;100.00;99771.78;10389463;28;20038;-71
2024/01/31 23:12:03;;;;;;;5.28;2.83;;;;;;;1.85;100.00;99763.41;10388877;28;20045;-71